Airfield :
LOGIN :

Register | Disclaimer

   EN    FR    IT 

 










Legend :    VFR   Marginal VFR   IFR   Intensive IFR   Very Intensive IFR
Visi :
Ceiling :
>= 8 km
>= 3000ft
5 to 8 km
1000 to 3000 ft
1500m to 5 km
500 to 1000 ft
800 to 1500m
200 to 500 ft
< 800m
< 200 ft
Symbols :   Thunderstorms  Fog  Heavy snow  Heavy precipitations  Wind > 20 kt
SIGMETs :     Misc.  Thunderstorms  Icing  Turbulence  Mountain Waves  Volcanic Ashes






- Airport Elevation : 249 ft


EGOS - RAF Shawbury

CURRENT METAR :
  • 192150Z 34002KT CAVOK 08/01 Q1018 NOSIG RMK BLU BLU

EXPIRED METARs :
  • 192120Z 35002KT CAVOK 08/01 Q1018 NOSIG RMK BLU BLU
  • 192050Z 01003KT CAVOK 09/01 Q1018 NOSIG RMK BLU BLU
  • 192020Z 01002KT CAVOK 10/02 Q1018 NOSIG RMK BLU BLU
  • 191950Z 31002KT CAVOK 10/00 Q1018 NOSIG RMK BLU BLU
  • 191920Z 21003KT CAVOK 13/M00 Q1018 NOSIG RMK BLU BLU
  • 191850Z AUTO 20004KT 9999 NCD 13/00 Q1018

TAF TAF EGOS
Valid from the 19 at 21:00 until the 20 at 02:00 UTC


191936Z 1921/2002 VRB05KT CAVOK
BECMG 1923/2002 7000 HZ



MET'MAP, your aeronautical weather chart ! - Copyright ORBIFLY December 2007 - Disclaimer

ORBIFLY MET'MAP TEAM :

Programming & Development : Alexandra Zaïnal
Concept & original design : Baudouin d'Aumeries
Assistance for programming : Marc-Olivier Méhu
Technical & hardware support : Manuel Goepfert

Contact : metmap@orbifly.com




SOURCES & CREDITS :

   NOAA